createdAt,value
2023-02-15T00:04:57.757Z,11.30
2023-02-15T00:10:02.514Z,9.73
2023-02-15T00:15:07.264Z,11.60
2023-02-15T00:20:12.040Z,11.97
2023-02-15T00:25:17.140Z,10.93
2023-02-15T00:30:20.793Z,11.03
2023-02-15T00:35:24.425Z,10.13
2023-02-15T00:40:30.169Z,11.57
2023-02-15T00:45:33.932Z,10.50
2023-02-15T00:50:37.238Z,11.73
2023-02-15T00:55:42.342Z,10.60
2023-02-15T01:00:47.693Z,11.00
2023-02-15T01:05:51.949Z,11.70
2023-02-15T01:10:58.504Z,11.70
2023-02-15T01:16:02.754Z,11.03
2023-02-15T01:21:14.819Z,11.27
2023-02-15T01:26:22.220Z,10.90
2023-02-15T01:31:25.596Z,11.03
2023-02-15T01:36:29.481Z,11.07
2023-02-15T01:41:34.303Z,11.83
2023-02-15T01:46:42.846Z,9.83
2023-02-15T01:51:49.745Z,10.20
2023-02-15T01:56:57.752Z,10.37
2023-02-15T02:02:03.742Z,10.67
2023-02-15T02:07:08.742Z,9.77
2023-02-15T02:12:14.429Z,10.40
2023-02-15T02:17:23.168Z,10.60
2023-02-15T02:23:22.073Z,9.53
2023-02-15T02:28:54.855Z,9.87
2023-02-15T02:34:07.833Z,9.43
2023-02-15T02:39:26.568Z,9.73
2023-02-15T02:44:36.387Z,10.07
2023-02-15T02:49:43.268Z,9.13
2023-02-15T02:54:47.387Z,9.57
2023-02-15T02:59:53.497Z,9.60
2023-02-15T03:05:04.752Z,10.87
2023-02-15T03:10:10.621Z,9.87
2023-02-15T03:15:21.980Z,9.57
2023-02-15T03:20:32.421Z,9.83
2023-02-15T03:25:42.019Z,9.73
2023-02-15T03:30:51.592Z,9.13
2023-02-15T03:36:04.246Z,9.87
2023-02-15T03:41:13.072Z,9.60
2023-02-15T03:46:24.615Z,10.20
2023-02-15T03:51:37.516Z,9.00
2023-02-15T03:57:03.905Z,9.43
2023-02-15T04:02:17.945Z,10.03
2023-02-15T04:07:22.998Z,9.60
2023-02-15T04:12:26.420Z,9.27
2023-02-15T04:17:30.596Z,8.73
2023-02-15T04:22:52.724Z,8.77
2023-02-15T04:27:57.007Z,8.80
2023-02-15T04:33:00.398Z,8.97
2023-02-15T04:38:05.176Z,8.97
2023-02-15T04:43:08.885Z,9.37
2023-02-15T04:48:12.271Z,9.90
2023-02-15T04:53:21.305Z,9.43
2023-02-15T04:58:24.678Z,9.47
2023-02-15T05:03:28.061Z,9.00
2023-02-15T05:08:33.877Z,10.67
2023-02-15T05:13:37.284Z,10.03
2023-02-15T05:18:40.765Z,9.10
2023-02-15T05:23:45.529Z,9.00
2023-02-15T05:28:49.189Z,8.80
2023-02-15T05:33:52.624Z,9.03
2023-02-15T05:38:57.500Z,9.20
2023-02-15T05:44:00.969Z,9.30
2023-02-15T05:49:04.862Z,9.63
2023-02-15T05:54:10.021Z,9.07
2023-02-15T05:59:13.801Z,11.97
2023-02-15T06:04:17.185Z,10.43
2023-02-15T06:09:22.011Z,10.17
2023-02-15T06:14:25.482Z,10.03
2023-02-15T06:19:28.938Z,9.77
2023-02-15T06:24:33.958Z,9.77
2023-02-15T06:29:37.714Z,8.97
2023-02-15T06:34:41.382Z,9.10
2023-02-15T06:39:46.377Z,9.13
2023-02-15T06:44:49.811Z,9.20
2023-02-15T06:49:53.215Z,9.43
2023-02-15T06:54:58.012Z,9.63
2023-02-15T07:00:01.418Z,9.17
2023-02-15T07:05:07.899Z,8.87
2023-02-15T07:10:13.137Z,9.57
2023-02-15T07:15:18.957Z,10.10
2023-02-15T07:20:24.659Z,10.00
2023-02-15T07:25:29.698Z,10.10
2023-02-15T07:30:33.181Z,9.83
2023-02-15T07:35:37.107Z,10.50
2023-02-15T07:40:41.893Z,9.03
2023-02-15T07:45:46.134Z,9.20
2023-02-15T07:50:49.509Z,9.10
2023-02-15T07:55:54.560Z,9.43
2023-02-15T08:01:02.824Z,9.57
2023-02-15T08:06:07.178Z,9.07
2023-02-15T08:11:37.558Z,8.77
2023-02-15T08:16:42.664Z,9.10
2023-02-15T08:21:48.212Z,8.77
2023-02-15T08:26:54.246Z,7.83
2023-02-15T08:32:03.307Z,8.20
2023-02-15T08:37:07.578Z,7.77
2023-02-15T08:42:12.314Z,7.83
2023-02-15T08:47:15.692Z,8.27
2023-02-15T08:52:19.198Z,7.83
2023-02-15T08:57:23.991Z,7.43
2023-02-15T09:02:27.404Z,6.83
2023-02-15T09:07:31.219Z,6.93
2023-02-15T09:12:36.040Z,8.00
2023-02-15T09:17:39.507Z,7.53
2023-02-15T09:22:42.900Z,8.27
2023-02-15T09:27:47.744Z,8.20
2023-02-15T09:32:51.133Z,9.20
2023-02-15T09:37:54.520Z,8.60
2023-02-15T09:43:19.053Z,8.73
2023-02-15T09:48:43.942Z,8.77
2023-02-15T09:54:03.536Z,9.00
2023-02-15T09:59:18.954Z,9.40
2023-02-15T10:04:45.741Z,10.50
2023-02-15T10:10:00.866Z,10.07
2023-02-15T10:15:21.629Z,10.10
2023-02-15T10:20:35.406Z,10.60
2023-02-15T10:25:45.870Z,8.47
2023-02-15T10:30:52.869Z,8.53
2023-02-15T10:36:07.187Z,9.00
2023-02-15T10:41:20.108Z,8.70
2023-02-15T10:46:45.628Z,9.13
2023-02-15T10:51:58.516Z,8.70
2023-02-15T10:57:07.218Z,9.30
2023-02-15T11:02:22.971Z,9.83
2023-02-15T11:07:30.131Z,9.00
2023-02-15T11:12:35.492Z,9.50
2023-02-15T11:17:45.835Z,8.83
2023-02-15T11:22:52.156Z,8.83
2023-02-15T11:27:57.719Z,9.27
2023-02-15T11:33:07.730Z,9.53
2023-02-15T11:38:19.716Z,8.03
2023-02-15T11:43:27.203Z,9.27
2023-02-15T11:48:33.610Z,9.30
2023-02-15T11:53:40.563Z,8.97
2023-02-15T11:58:48.250Z,8.87
2023-02-15T12:11:09.120Z,8.67
2023-02-15T12:16:14.903Z,9.77
2023-02-15T12:21:28.499Z,10.07
2023-02-15T12:26:36.205Z,11.83
2023-02-15T12:31:44.118Z,11.13
2023-02-15T12:36:55.469Z,11.17
2023-02-15T12:42:07.581Z,12.23
2023-02-15T12:47:21.689Z,13.70
2023-02-15T12:52:27.612Z,13.20
2023-02-15T12:57:34.580Z,13.17
2023-02-15T13:02:44.303Z,14.20
2023-02-15T13:07:52.042Z,13.73
2023-02-15T13:12:58.994Z,13.37
2023-02-15T13:18:04.512Z,13.07
2023-02-15T13:23:15.777Z,11.60
2023-02-15T13:28:25.421Z,12.47
2023-02-15T13:33:34.981Z,11.80
2023-02-15T13:38:54.502Z,11.00
2023-02-15T13:44:08.331Z,11.03
2023-02-15T13:49:21.045Z,10.80
2023-02-15T13:54:56.193Z,10.23
2023-02-15T14:00:12.122Z,10.77
2023-02-15T14:05:33.405Z,10.33
2023-02-15T14:10:57.637Z,11.23
2023-02-15T14:16:05.615Z,11.10
2023-02-15T14:21:13.872Z,11.67
2023-02-15T14:26:25.070Z,11.23
2023-02-15T14:31:33.236Z,11.07
2023-02-15T14:36:37.197Z,11.40
2023-02-15T14:41:50.493Z,11.03
2023-02-15T14:47:00.252Z,10.60
2023-02-15T14:52:08.255Z,11.40
2023-02-15T14:57:27.586Z,9.63
2023-02-15T15:02:43.067Z,9.93
2023-02-15T15:07:49.897Z,9.53
2023-02-15T15:12:55.612Z,11.03
2023-02-15T15:18:01.751Z,10.90
2023-02-15T15:23:42.530Z,9.03
2023-02-15T15:29:03.939Z,9.87
2023-02-15T15:34:46.934Z,10.60
2023-02-15T15:40:32.615Z,12.50
2023-02-15T15:46:07.373Z,17.00
2023-02-15T15:51:20.396Z,24.07
2023-02-15T15:56:29.092Z,22.27
2023-02-15T16:01:42.891Z,15.63
2023-02-15T16:06:47.167Z,13.13
2023-02-15T16:11:52.853Z,12.30
2023-02-15T16:17:00.511Z,10.03
2023-02-15T16:22:05.493Z,9.80
2023-02-15T16:27:26.991Z,15.40
2023-02-15T16:32:32.627Z,17.47
2023-02-15T16:37:37.451Z,14.50
2023-02-15T16:42:41.014Z,15.73
2023-02-15T16:47:48.669Z,11.50
2023-02-15T16:52:53.347Z,10.67
2023-02-15T16:58:00.101Z,11.00
2023-02-15T17:03:07.635Z,11.17
2023-02-15T17:08:20.526Z,11.50
2023-02-15T17:13:23.945Z,11.47
2023-02-15T17:18:31.483Z,9.70
2023-02-15T17:23:38.128Z,10.50
2023-02-15T17:28:49.371Z,11.23
2023-02-15T17:33:56.833Z,11.00
2023-02-15T17:39:07.587Z,9.00
2023-02-15T17:44:15.080Z,10.30
2023-02-15T17:49:26.150Z,10.40
2023-02-15T17:54:46.714Z,10.50
2023-02-15T18:00:07.508Z,12.27
2023-02-15T18:05:35.520Z,11.00
2023-02-15T18:11:00.182Z,11.40
2023-02-15T18:16:03.731Z,11.30
2023-02-15T18:21:12.119Z,9.77
2023-02-15T18:26:20.945Z,10.40
2023-02-15T18:31:25.505Z,9.87
2023-02-15T18:36:33.827Z,9.50
2023-02-15T18:41:37.223Z,11.40
2023-02-15T18:46:40.625Z,11.57
2023-02-15T18:51:52.439Z,11.70
2023-02-15T18:56:57.902Z,11.57
2023-02-15T19:02:01.812Z,11.43
2023-02-15T19:07:07.407Z,11.47
2023-02-15T19:12:14.566Z,12.03
2023-02-15T19:17:20.494Z,11.70
2023-02-15T19:22:28.443Z,10.97
2023-02-15T19:27:35.115Z,11.10
2023-02-15T19:32:39.133Z,10.60
2023-02-15T19:37:49.939Z,9.80
2023-02-15T19:42:53.956Z,9.63
2023-02-15T19:47:57.902Z,9.60
2023-02-15T19:53:03.405Z,9.73
2023-02-15T19:58:13.953Z,10.33
2023-02-15T20:03:17.821Z,9.77
2023-02-15T20:08:24.344Z,9.33
2023-02-15T20:13:29.261Z,8.87
2023-02-15T20:18:32.671Z,8.33
2023-02-15T20:23:38.123Z,7.43
2023-02-15T20:28:41.568Z,7.40
2023-02-15T20:33:45.009Z,7.17
2023-02-15T20:38:50.742Z,6.90
2023-02-15T20:43:54.098Z,6.73
2023-02-15T20:48:57.697Z,7.53
2023-02-15T20:54:02.549Z,7.40
2023-02-15T20:59:18.308Z,7.53
2023-02-15T21:04:26.453Z,7.67
2023-02-15T21:09:31.722Z,7.30
2023-02-15T21:14:36.249Z,7.57
2023-02-15T21:19:41.144Z,8.20
2023-02-15T21:24:51.875Z,8.33
2023-02-15T21:29:55.244Z,7.90
2023-02-15T21:34:58.653Z,8.40
2023-02-15T21:40:05.933Z,10.23
2023-02-15T21:45:33.224Z,10.30
2023-02-15T21:50:55.136Z,9.50
2023-02-15T21:56:03.395Z,9.80
2023-02-15T22:01:07.734Z,9.37
2023-02-15T22:06:15.097Z,9.03
2023-02-15T22:11:22.877Z,9.97
2023-02-15T22:16:26.575Z,10.60
2023-02-15T22:21:32.448Z,10.47
2023-02-15T22:26:37.206Z,10.80
2023-02-15T22:31:41.129Z,10.10
2023-02-15T22:36:44.667Z,10.23
2023-02-15T22:41:50.089Z,9.20
2023-02-15T22:46:53.794Z,8.97
2023-02-15T22:51:57.330Z,8.20
2023-02-15T22:57:02.044Z,8.43
2023-02-15T23:02:07.676Z,8.97
2023-02-15T23:07:23.172Z,9.93
2023-02-15T23:12:50.244Z,8.60
2023-02-15T23:17:54.148Z,9.10
2023-02-15T23:22:57.496Z,9.07
2023-02-15T23:28:02.514Z,9.27
2023-02-15T23:33:07.849Z,9.53
2023-02-15T23:38:20.434Z,8.43
2023-02-15T23:43:25.481Z,9.40
2023-02-15T23:48:35.499Z,8.47
2023-02-15T23:53:38.908Z,7.77
2023-02-15T23:58:45.915Z,7.27
